sensor_id;sensor_type;location;lat;lon;timestamp;pressure;altitude;pressure_sealevel;temperature;humidity
56568;BME280;42456;49.956;20.004;2023-01-30T00:01:44;98445.23;;;-2.95;77.43
56568;BME280;42456;49.956;20.004;2023-01-30T00:04:11;98437.30;;;-2.95;77.23
56568;BME280;42456;49.956;20.004;2023-01-30T00:06:42;98433.13;;;-2.95;77.25
56568;BME280;42456;49.956;20.004;2023-01-30T00:09:13;98425.16;;;-2.96;77.40
56568;BME280;42456;49.956;20.004;2023-01-30T00:11:43;98422.55;;;-2.98;77.02
56568;BME280;42456;49.956;20.004;2023-01-30T00:14:10;98416.56;;;-3.01;76.52
56568;BME280;42456;49.956;20.004;2023-01-30T00:16:37;98407.23;;;-3.05;77.06
56568;BME280;42456;49.956;20.004;2023-01-30T00:19:04;98400.39;;;-3.11;77.74
56568;BME280;42456;49.956;20.004;2023-01-30T00:21:31;98394.85;;;-3.16;77.25
56568;BME280;42456;49.956;20.004;2023-01-30T00:23:57;98385.10;;;-3.19;77.49
56568;BME280;42456;49.956;20.004;2023-01-30T00:26:26;98384.27;;;-3.22;77.46
56568;BME280;42456;49.956;20.004;2023-01-30T00:28:53;98386.50;;;-3.24;77.35
56568;BME280;42456;49.956;20.004;2023-01-30T00:31:20;98373.75;;;-3.25;77.71
56568;BME280;42456;49.956;20.004;2023-01-30T00:33:47;98370.69;;;-3.26;77.97
56568;BME280;42456;49.956;20.004;2023-01-30T00:36:14;98366.59;;;-3.25;77.52
56568;BME280;42456;49.956;20.004;2023-01-30T00:38:41;98354.94;;;-3.24;78.25
56568;BME280;42456;49.956;20.004;2023-01-30T00:41:07;98350.83;;;-3.21;78.10
56568;BME280;42456;49.956;20.004;2023-01-30T00:43:36;98346.35;;;-3.18;77.62
56568;BME280;42456;49.956;20.004;2023-01-30T00:46:29;98334.84;;;-3.14;78.09
56568;BME280;42456;49.956;20.004;2023-01-30T00:49:10;98325.84;;;-3.09;77.69
56568;BME280;42456;49.956;20.004;2023-01-30T00:51:37;98323.01;;;-3.04;77.99
56568;BME280;42456;49.956;20.004;2023-01-30T00:54:04;98319.89;;;-2.99;77.95
56568;BME280;42456;49.956;20.004;2023-01-30T00:56:31;98311.90;;;-2.94;77.28
56568;BME280;42456;49.956;20.004;2023-01-30T00:58:58;98304.16;;;-2.90;77.62
56568;BME280;42456;49.956;20.004;2023-01-30T01:01:25;98298.86;;;-2.86;77.23
56568;BME280;42456;49.956;20.004;2023-01-30T01:03:52;98290.86;;;-2.83;77.69
56568;BME280;42456;49.956;20.004;2023-01-30T01:06:19;98286.91;;;-2.82;77.20
56568;BME280;42456;49.956;20.004;2023-01-30T01:08:45;98275.65;;;-2.82;77.63
56568;BME280;42456;49.956;20.004;2023-01-30T01:11:12;98271.50;;;-2.82;77.06
56568;BME280;42456;49.956;20.004;2023-01-30T01:13:52;98270.11;;;-2.84;77.38
56568;BME280;42456;49.956;20.004;2023-01-30T01:16:19;98259.83;;;-2.85;77.84
56568;BME280;42456;49.956;20.004;2023-01-30T01:18:47;98262.45;;;-2.86;77.89
56568;BME280;42456;49.956;20.004;2023-01-30T01:21:14;98256.85;;;-2.87;77.32
56568;BME280;42456;49.956;20.004;2023-01-30T01:23:41;98251.21;;;-2.88;77.95
56568;BME280;42456;49.956;20.004;2023-01-30T01:26:08;98248.02;;;-2.89;78.08
56568;BME280;42456;49.956;20.004;2023-01-30T01:28:36;98236.75;;;-2.91;77.68
56568;BME280;42456;49.956;20.004;2023-01-30T01:31:10;98234.63;;;-2.93;77.88
56568;BME280;42456;49.956;20.004;2023-01-30T01:33:38;98229.16;;;-2.96;78.30
56568;BME280;42456;49.956;20.004;2023-01-30T01:36:06;98215.38;;;-3.00;78.56
56568;BME280;42456;49.956;20.004;2023-01-30T01:38:33;98218.63;;;-3.05;78.29
56568;BME280;42456;49.956;20.004;2023-01-30T01:41:00;98219.27;;;-3.12;78.14
56568;BME280;42456;49.956;20.004;2023-01-30T01:43:30;98210.90;;;-3.19;78.70
56568;BME280;42456;49.956;20.004;2023-01-30T01:46:07;98201.59;;;-3.26;78.21
56568;BME280;42456;49.956;20.004;2023-01-30T01:48:40;98190.50;;;-3.34;78.70
56568;BME280;42456;49.956;20.004;2023-01-30T01:51:32;98182.92;;;-3.41;78.20
56568;BME280;42456;49.956;20.004;2023-01-30T01:54:20;98182.15;;;-3.51;78.12
56568;BME280;42456;49.956;20.004;2023-01-30T01:56:50;98179.44;;;-3.60;78.36
56568;BME280;42456;49.956;20.004;2023-01-30T01:59:30;98171.98;;;-3.67;78.76
56568;BME280;42456;49.956;20.004;2023-01-30T02:02:00;98164.20;;;-3.73;78.94
56568;BME280;42456;49.956;20.004;2023-01-30T02:04:29;98159.08;;;-3.78;79.51
56568;BME280;42456;49.956;20.004;2023-01-30T02:07:10;98154.48;;;-3.83;79.06
56568;BME280;42456;49.956;20.004;2023-01-30T02:09:37;98150.96;;;-3.88;79.05
56568;BME280;42456;49.956;20.004;2023-01-30T02:12:04;98151.84;;;-3.92;78.62
56568;BME280;42456;49.956;20.004;2023-01-30T02:14:32;98145.65;;;-3.98;78.61
56568;BME280;42456;49.956;20.004;2023-01-30T02:17:00;98135.23;;;-4.03;79.06
56568;BME280;42456;49.956;20.004;2023-01-30T02:33:15;98120.75;;;-4.30;79.17
56568;BME280;42456;49.956;20.004;2023-01-30T02:39:07;98128.66;;;-4.37;79.52
56568;BME280;42456;49.956;20.004;2023-01-30T02:44:09;98122.27;;;-4.42;79.75
56568;BME280;42456;49.956;20.004;2023-01-30T02:49:16;98117.52;;;-4.48;79.44
56568;BME280;42456;49.956;20.004;2023-01-30T02:51:48;98110.42;;;-4.52;79.80
56568;BME280;42456;49.956;20.004;2023-01-30T02:54:15;98101.63;;;-4.53;80.01
56568;BME280;42456;49.956;20.004;2023-01-30T02:56:50;98101.29;;;-4.55;80.01
56568;BME280;42456;49.956;20.004;2023-01-30T03:10:07;98085.24;;;-4.56;80.20
56568;BME280;42456;49.956;20.004;2023-01-30T03:12:48;98077.75;;;-4.56;80.20
56568;BME280;42456;49.956;20.004;2023-01-30T03:17:47;98069.94;;;-4.55;80.47
56568;BME280;42456;49.956;20.004;2023-01-30T03:20:15;98066.44;;;-4.54;80.67
56568;BME280;42456;49.956;20.004;2023-01-30T03:22:44;98062.32;;;-4.53;80.81
56568;BME280;42456;49.956;20.004;2023-01-30T03:25:19;98063.23;;;-4.52;80.66
56568;BME280;42456;49.956;20.004;2023-01-30T03:27:49;98067.08;;;-4.51;80.73
56568;BME280;42456;49.956;20.004;2023-01-30T03:30:17;98065.95;;;-4.49;80.53
56568;BME280;42456;49.956;20.004;2023-01-30T03:32:44;98061.30;;;-4.47;80.44
56568;BME280;42456;49.956;20.004;2023-01-30T03:35:11;98051.05;;;-4.46;80.51
56568;BME280;42456;49.956;20.004;2023-01-30T03:37:38;98044.51;;;-4.44;80.68
56568;BME280;42456;49.956;20.004;2023-01-30T03:40:05;98029.02;;;-4.42;80.74
56568;BME280;42456;49.956;20.004;2023-01-30T03:42:33;98034.02;;;-4.41;80.77
56568;BME280;42456;49.956;20.004;2023-01-30T03:44:59;98035.04;;;-4.39;80.93
56568;BME280;42456;49.956;20.004;2023-01-30T03:47:26;98039.54;;;-4.37;80.79
56568;BME280;42456;49.956;20.004;2023-01-30T03:49:53;98030.39;;;-4.34;80.76
56568;BME280;42456;49.956;20.004;2023-01-30T03:52:20;98018.14;;;-4.32;80.71
56568;BME280;42456;49.956;20.004;2023-01-30T03:54:47;98015.44;;;-4.31;81.05
56568;BME280;42456;49.956;20.004;2023-01-30T03:57:14;98016.20;;;-4.29;80.69
56568;BME280;42456;49.956;20.004;2023-01-30T03:59:40;98017.11;;;-4.27;81.30
56568;BME280;42456;49.956;20.004;2023-01-30T04:02:07;98007.33;;;-4.25;80.91
56568;BME280;42456;49.956;20.004;2023-01-30T04:04:34;98002.83;;;-4.24;80.69
56568;BME280;42456;49.956;20.004;2023-01-30T04:07:01;97998.59;;;-4.23;80.92
56568;BME280;42456;49.956;20.004;2023-01-30T04:09:28;97988.92;;;-4.23;80.97
56568;BME280;42456;49.956;20.004;2023-01-30T04:11:55;97991.55;;;-4.22;81.23
56568;BME280;42456;49.956;20.004;2023-01-30T04:14:21;97990.73;;;-4.22;81.03
56568;BME280;42456;49.956;20.004;2023-01-30T04:16:48;97991.52;;;-4.21;80.97
56568;BME280;42456;49.956;20.004;2023-01-30T04:19:15;97987.90;;;-4.20;80.96
56568;BME280;42456;49.956;20.004;2023-01-30T04:21:42;97983.91;;;-4.21;81.09
56568;BME280;42456;49.956;20.004;2023-01-30T04:24:09;97977.98;;;-4.21;80.98
56568;BME280;42456;49.956;20.004;2023-01-30T04:26:35;97979.08;;;-4.22;81.05
56568;BME280;42456;49.956;20.004;2023-01-30T04:29:02;97974.80;;;-4.24;80.67
56568;BME280;42456;49.956;20.004;2023-01-30T04:31:29;97972.67;;;-4.25;80.82
56568;BME280;42456;49.956;20.004;2023-01-30T04:33:56;97970.39;;;-4.26;80.62
56568;BME280;42456;49.956;20.004;2023-01-30T04:36:23;97967.91;;;-4.28;80.70
56568;BME280;42456;49.956;20.004;2023-01-30T04:38:50;97967.11;;;-4.28;80.89
56568;BME280;42456;49.956;20.004;2023-01-30T04:41:17;97959.38;;;-4.29;80.85
56568;BME280;42456;49.956;20.004;2023-01-30T04:43:43;97958.08;;;-4.29;80.91
56568;BME280;42456;49.956;20.004;2023-01-30T04:46:10;97954.73;;;-4.27;81.31
56568;BME280;42456;49.956;20.004;2023-01-30T04:48:37;97955.96;;;-4.26;81.22
56568;BME280;42456;49.956;20.004;2023-01-30T04:51:05;97960.73;;;-4.25;81.25
56568;BME280;42456;49.956;20.004;2023-01-30T04:53:32;97960.14;;;-4.23;81.33
56568;BME280;42456;49.956;20.004;2023-01-30T04:55:59;97952.51;;;-4.21;81.15
56568;BME280;42456;49.956;20.004;2023-01-30T04:58:26;97943.23;;;-4.20;81.37
56568;BME280;42456;49.956;20.004;2023-01-30T05:00:53;97938.05;;;-4.19;81.12
56568;BME280;42456;49.956;20.004;2023-01-30T05:03:19;97935.45;;;-4.17;81.21
56568;BME280;42456;49.956;20.004;2023-01-30T05:05:47;97934.45;;;-4.16;81.31
56568;BME280;42456;49.956;20.004;2023-01-30T05:08:14;97933.48;;;-4.14;81.39
56568;BME280;42456;49.956;20.004;2023-01-30T05:10:41;97928.48;;;-4.12;81.12
56568;BME280;42456;49.956;20.004;2023-01-30T05:13:08;97928.96;;;-4.11;81.10
56568;BME280;42456;49.956;20.004;2023-01-30T05:15:35;97933.19;;;-4.09;80.87
56568;BME280;42456;49.956;20.004;2023-01-30T05:18:02;97932.56;;;-4.08;80.70
56568;BME280;42456;49.956;20.004;2023-01-30T05:20:28;97937.41;;;-4.07;80.66
56568;BME280;42456;49.956;20.004;2023-01-30T05:22:55;97934.74;;;-4.07;80.27
56568;BME280;42456;49.956;20.004;2023-01-30T05:25:22;97934.75;;;-4.06;80.23
56568;BME280;42456;49.956;20.004;2023-01-30T05:27:49;97933.47;;;-4.04;80.18
56568;BME280;42456;49.956;20.004;2023-01-30T05:30:16;97931.75;;;-4.02;80.20
56568;BME280;42456;49.956;20.004;2023-01-30T05:32:43;97926.22;;;-3.99;79.88
56568;BME280;42456;49.956;20.004;2023-01-30T05:35:10;97917.62;;;-3.98;79.57
56568;BME280;42456;49.956;20.004;2023-01-30T05:37:36;97905.71;;;-3.97;79.99
56568;BME280;42456;49.956;20.004;2023-01-30T05:40:04;97890.08;;;-3.96;79.58
56568;BME280;42456;49.956;20.004;2023-01-30T05:42:32;97886.11;;;-3.94;79.32
56568;BME280;42456;49.956;20.004;2023-01-30T05:44:58;97886.38;;;-3.93;79.33
56568;BME280;42456;49.956;20.004;2023-01-30T05:47:25;97887.20;;;-3.90;79.12
56568;BME280;42456;49.956;20.004;2023-01-30T05:49:52;97874.98;;;-3.88;79.32
56568;BME280;42456;49.956;20.004;2023-01-30T05:52:19;97871.23;;;-3.85;78.76
56568;BME280;42456;49.956;20.004;2023-01-30T05:54:49;97873.81;;;-3.84;79.25
56568;BME280;42456;49.956;20.004;2023-01-30T05:57:16;97874.25;;;-3.83;78.81
56568;BME280;42456;49.956;20.004;2023-01-30T05:59:43;97876.61;;;-3.82;78.80
56568;BME280;42456;49.956;20.004;2023-01-30T06:02:10;97882.36;;;-3.81;78.44
56568;BME280;42456;49.956;20.004;2023-01-30T06:04:37;97883.42;;;-3.79;78.15
56568;BME280;42456;49.956;20.004;2023-01-30T06:07:04;97875.93;;;-3.77;77.95
56568;BME280;42456;49.956;20.004;2023-01-30T06:09:31;97860.87;;;-3.76;78.08
56568;BME280;42456;49.956;20.004;2023-01-30T06:11:57;97860.76;;;-3.72;77.99
56568;BME280;42456;49.956;20.004;2023-01-30T06:14:24;97861.33;;;-3.69;77.86
56568;BME280;42456;49.956;20.004;2023-01-30T06:16:51;97851.25;;;-3.66;77.71
56568;BME280;42456;49.956;20.004;2023-01-30T06:19:18;97844.88;;;-3.62;77.26
56568;BME280;42456;49.956;20.004;2023-01-30T06:21:45;97851.67;;;-3.60;77.33
56568;BME280;42456;49.956;20.004;2023-01-30T06:24:12;97844.91;;;-3.58;77.50
56568;BME280;42456;49.956;20.004;2023-01-30T06:26:39;97840.30;;;-3.57;77.32
56568;BME280;42456;49.956;20.004;2023-01-30T06:29:06;97830.31;;;-3.57;77.28
56568;BME280;42456;49.956;20.004;2023-01-30T06:31:32;97821.97;;;-3.56;77.26
56568;BME280;42456;49.956;20.004;2023-01-30T06:33:59;97813.08;;;-3.56;77.09
56568;BME280;42456;49.956;20.004;2023-01-30T06:36:26;97802.63;;;-3.55;76.99
56568;BME280;42456;49.956;20.004;2023-01-30T06:38:53;97786.40;;;-3.54;76.86
56568;BME280;42456;49.956;20.004;2023-01-30T06:41:20;97782.46;;;-3.54;76.36
56568;BME280;42456;49.956;20.004;2023-01-30T06:43:47;97771.54;;;-3.52;76.16
56568;BME280;42456;49.956;20.004;2023-01-30T06:46:14;97761.01;;;-3.49;76.81
56568;BME280;42456;49.956;20.004;2023-01-30T06:48:41;97766.41;;;-3.44;76.29
56568;BME280;42456;49.956;20.004;2023-01-30T06:51:08;97769.55;;;-3.38;75.79
56568;BME280;42456;49.956;20.004;2023-01-30T06:53:34;97758.91;;;-3.32;76.00
56568;BME280;42456;49.956;20.004;2023-01-30T06:56:01;97741.55;;;-3.26;75.82
56568;BME280;42456;49.956;20.004;2023-01-30T06:58:28;97736.08;;;-3.19;75.58
56568;BME280;42456;49.956;20.004;2023-01-30T07:00:55;97751.79;;;-3.14;75.23
56568;BME280;42456;49.956;20.004;2023-01-30T07:03:23;97767.29;;;-3.07;75.76
56568;BME280;42456;49.956;20.004;2023-01-30T07:05:50;97764.64;;;-3.02;75.86
56568;BME280;42456;49.956;20.004;2023-01-30T07:08:17;97768.09;;;-2.97;75.21
56568;BME280;42456;49.956;20.004;2023-01-30T07:10:44;97758.64;;;-2.93;75.34
56568;BME280;42456;49.956;20.004;2023-01-30T07:13:11;97750.83;;;-2.90;75.20
56568;BME280;42456;49.956;20.004;2023-01-30T07:15:39;97746.00;;;-2.86;74.98
56568;BME280;42456;49.956;20.004;2023-01-30T07:18:06;97743.91;;;-2.81;74.90
56568;BME280;42456;49.956;20.004;2023-01-30T07:20:33;97743.21;;;-2.77;74.78
56568;BME280;42456;49.956;20.004;2023-01-30T07:23:00;97737.76;;;-2.71;74.76
56568;BME280;42456;49.956;20.004;2023-01-30T07:25:28;97721.55;;;-2.66;74.28
56568;BME280;42456;49.956;20.004;2023-01-30T07:27:58;97696.26;;;-2.62;73.83
56568;BME280;42456;49.956;20.004;2023-01-30T07:30:28;97696.95;;;-2.57;73.37
56568;BME280;42456;49.956;20.004;2023-01-30T07:32:56;97682.85;;;-2.51;74.16
56568;BME280;42456;49.956;20.004;2023-01-30T07:35:25;97699.46;;;-2.45;73.89
56568;BME280;42456;49.956;20.004;2023-01-30T07:37:52;97708.60;;;-2.37;73.48
56568;BME280;42456;49.956;20.004;2023-01-30T07:40:20;97711.04;;;-2.29;73.49
56568;BME280;42456;49.956;20.004;2023-01-30T07:43:02;97707.52;;;-2.19;73.44
56568;BME280;42456;49.956;20.004;2023-01-30T07:45:43;97708.87;;;-2.11;72.96
56568;BME280;42456;49.956;20.004;2023-01-30T07:48:12;97713.19;;;-2.02;72.72
56568;BME280;42456;49.956;20.004;2023-01-30T07:50:40;97717.58;;;-1.95;72.48
56568;BME280;42456;49.956;20.004;2023-01-30T07:53:10;97714.74;;;-1.86;71.92
56568;BME280;42456;49.956;20.004;2023-01-30T07:55:38;97717.86;;;-1.75;72.33
56568;BME280;42456;49.956;20.004;2023-01-30T07:58:06;97721.61;;;-1.64;72.10
56568;BME280;42456;49.956;20.004;2023-01-30T08:00:32;97722.29;;;-1.53;72.22
56568;BME280;42456;49.956;20.004;2023-01-30T08:02:59;97719.38;;;-1.43;71.78
56568;BME280;42456;49.956;20.004;2023-01-30T08:05:27;97715.41;;;-1.34;71.59
56568;BME280;42456;49.956;20.004;2023-01-30T08:07:55;97704.53;;;-1.26;71.29
56568;BME280;42456;49.956;20.004;2023-01-30T08:10:22;97711.27;;;-1.19;71.43
56568;BME280;42456;49.956;20.004;2023-01-30T08:12:49;97709.36;;;-1.14;71.11
56568;BME280;42456;49.956;20.004;2023-01-30T08:15:17;97714.59;;;-1.09;71.18
56568;BME280;42456;49.956;20.004;2023-01-30T08:17:52;97702.42;;;-1.03;71.10
56568;BME280;42456;49.956;20.004;2023-01-30T08:20:20;97692.91;;;-0.97;71.00
56568;BME280;42456;49.956;20.004;2023-01-30T08:22:47;97689.30;;;-0.92;70.66
56568;BME280;42456;49.956;20.004;2023-01-30T08:25:14;97691.30;;;-0.87;70.96
56568;BME280;42456;49.956;20.004;2023-01-30T08:27:41;97677.13;;;-0.84;70.63
56568;BME280;42456;49.956;20.004;2023-01-30T08:30:10;97674.16;;;-0.80;70.73
56568;BME280;42456;49.956;20.004;2023-01-30T08:32:37;97671.98;;;-0.76;70.72
56568;BME280;42456;49.956;20.004;2023-01-30T08:35:04;97667.20;;;-0.71;70.47
56568;BME280;42456;49.956;20.004;2023-01-30T08:37:31;97667.66;;;-0.63;70.42
56568;BME280;42456;49.956;20.004;2023-01-30T08:39:58;97665.42;;;-0.52;70.52
56568;BME280;42456;49.956;20.004;2023-01-30T08:42:25;97666.97;;;-0.43;70.25
56568;BME280;42456;49.956;20.004;2023-01-30T08:44:52;97660.86;;;-0.38;70.21
56568;BME280;42456;49.956;20.004;2023-01-30T08:47:19;97641.26;;;-0.38;69.95
56568;BME280;42456;49.956;20.004;2023-01-30T08:49:45;97618.98;;;-0.39;69.68
56568;BME280;42456;49.956;20.004;2023-01-30T08:52:12;97613.32;;;-0.38;69.59
56568;BME280;42456;49.956;20.004;2023-01-30T08:54:39;97621.54;;;-0.34;70.00
56568;BME280;42456;49.956;20.004;2023-01-30T08:57:06;97621.29;;;-0.30;69.83
56568;BME280;42456;49.956;20.004;2023-01-30T08:59:33;97622.94;;;-0.24;69.74
56568;BME280;42456;49.956;20.004;2023-01-30T09:02:00;97635.61;;;-0.16;69.69
56568;BME280;42456;49.956;20.004;2023-01-30T09:04:30;97636.56;;;-0.08;69.57
56568;BME280;42456;49.956;20.004;2023-01-30T09:06:57;97633.48;;;0.00;69.43
56568;BME280;42456;49.956;20.004;2023-01-30T09:09:24;97626.88;;;0.12;69.30
56568;BME280;42456;49.956;20.004;2023-01-30T09:11:51;97620.75;;;0.24;69.64
56568;BME280;42456;49.956;20.004;2023-01-30T09:14:18;97609.42;;;0.37;68.96
56568;BME280;42456;49.956;20.004;2023-01-30T09:16:46;97599.20;;;0.49;68.43
56568;BME280;42456;49.956;20.004;2023-01-30T09:19:14;97583.83;;;0.61;68.47
56568;BME280;42456;49.956;20.004;2023-01-30T09:21:40;97577.77;;;0.73;68.37
56568;BME280;42456;49.956;20.004;2023-01-30T09:24:08;97593.96;;;0.82;68.16
56568;BME280;42456;49.956;20.004;2023-01-30T09:26:34;97594.77;;;0.94;68.80
56568;BME280;42456;49.956;20.004;2023-01-30T09:29:01;97596.41;;;1.08;68.87
56568;BME280;42456;49.956;20.004;2023-01-30T09:31:28;97592.59;;;1.20;68.60
56568;BME280;42456;49.956;20.004;2023-01-30T09:33:55;97587.26;;;1.31;68.52
56568;BME280;42456;49.956;20.004;2023-01-30T09:36:22;97588.20;;;1.36;67.67
56568;BME280;42456;49.956;20.004;2023-01-30T09:38:49;97583.27;;;1.40;67.35
56568;BME280;42456;49.956;20.004;2023-01-30T09:41:30;97588.64;;;1.41;66.76
56568;BME280;42456;49.956;20.004;2023-01-30T09:44:13;97584.27;;;1.45;67.11
56568;BME280;42456;49.956;20.004;2023-01-30T09:46:53;97582.15;;;1.47;67.35
56568;BME280;42456;49.956;20.004;2023-01-30T09:54:44;97558.98;;;1.56;67.47
56568;BME280;42456;49.956;20.004;2023-01-30T09:57:23;97555.91;;;1.52;67.31
56568;BME280;42456;49.956;20.004;2023-01-30T10:00:09;97553.09;;;1.49;67.04
56568;BME280;42456;49.956;20.004;2023-01-30T10:03:27;97552.09;;;1.45;67.37
56568;BME280;42456;49.956;20.004;2023-01-30T10:06:06;97549.36;;;1.39;67.10
56568;BME280;42456;49.956;20.004;2023-01-30T10:11:39;97543.08;;;1.27;67.33
56568;BME280;42456;49.956;20.004;2023-01-30T10:24:49;97514.09;;;1.18;67.59
56568;BME280;42456;49.956;20.004;2023-01-30T10:27:18;97500.73;;;1.18;68.21
56568;BME280;42456;49.956;20.004;2023-01-30T10:29:54;97494.55;;;1.21;68.52
56568;BME280;42456;49.956;20.004;2023-01-30T10:32:26;97494.73;;;1.27;67.81
56568;BME280;42456;49.956;20.004;2023-01-30T10:35:20;97494.02;;;1.34;67.80
56568;BME280;42456;49.956;20.004;2023-01-30T10:37:57;97487.95;;;1.43;67.89
56568;BME280;42456;49.956;20.004;2023-01-30T10:40:38;97479.13;;;1.52;67.72
56568;BME280;42456;49.956;20.004;2023-01-30T10:48:45;97459.89;;;1.68;67.35
56568;BME280;42456;49.956;20.004;2023-01-30T10:51:22;97452.08;;;1.69;66.95
56568;BME280;42456;49.956;20.004;2023-01-30T10:53:59;97450.55;;;1.70;68.06
56568;BME280;42456;49.956;20.004;2023-01-30T10:56:39;97440.03;;;1.73;67.21
56568;BME280;42456;49.956;20.004;2023-01-30T10:59:26;97443.84;;;1.76;67.68
56568;BME280;42456;49.956;20.004;2023-01-30T11:04:57;97444.63;;;1.76;67.69
56568;BME280;42456;49.956;20.004;2023-01-30T11:07:29;97447.43;;;1.74;67.09
56568;BME280;42456;49.956;20.004;2023-01-30T11:09:57;97446.02;;;1.72;68.09
56568;BME280;42456;49.956;20.004;2023-01-30T11:12:24;97444.09;;;1.71;67.59
56568;BME280;42456;49.956;20.004;2023-01-30T11:14:59;97441.35;;;1.69;67.59
56568;BME280;42456;49.956;20.004;2023-01-30T11:17:33;97432.27;;;1.68;67.29
56568;BME280;42456;49.956;20.004;2023-01-30T11:20:15;97429.27;;;1.67;67.31
56568;BME280;42456;49.956;20.004;2023-01-30T11:25:53;97421.43;;;1.69;67.78
56568;BME280;42456;49.956;20.004;2023-01-30T11:28:42;97418.58;;;1.71;67.91
56568;BME280;42456;49.956;20.004;2023-01-30T11:31:18;97405.27;;;1.71;67.55
56568;BME280;42456;49.956;20.004;2023-01-30T11:34:14;97405.35;;;1.73;67.64
56568;BME280;42456;49.956;20.004;2023-01-30T11:36:41;97407.17;;;1.78;67.82
56568;BME280;42456;49.956;20.004;2023-01-30T11:41:42;97406.47;;;1.95;67.98
56568;BME280;42456;49.956;20.004;2023-01-30T11:44:10;97397.66;;;2.05;68.19
56568;BME280;42456;49.956;20.004;2023-01-30T11:46:38;97397.60;;;2.11;67.90
56568;BME280;42456;49.956;20.004;2023-01-30T11:49:17;97394.14;;;2.13;67.64
56568;BME280;42456;49.956;20.004;2023-01-30T11:52:08;97391.70;;;2.16;67.72
56568;BME280;42456;49.956;20.004;2023-01-30T11:54:41;97376.98;;;2.20;67.60
56568;BME280;42456;49.956;20.004;2023-01-30T11:57:12;97380.05;;;2.23;67.66
56568;BME280;42456;49.956;20.004;2023-01-30T11:59:45;97381.58;;;2.26;67.88
56568;BME280;42456;49.956;20.004;2023-01-30T12:02:19;97374.29;;;2.27;67.88
56568;BME280;42456;49.956;20.004;2023-01-30T12:04:50;97379.77;;;2.26;68.04
56568;BME280;42456;49.956;20.004;2023-01-30T12:07:24;97370.73;;;2.28;68.13
56568;BME280;42456;49.956;20.004;2023-01-30T12:09:52;97360.41;;;2.26;68.11
56568;BME280;42456;49.956;20.004;2023-01-30T12:14:53;97358.51;;;2.08;68.67
56568;BME280;42456;49.956;20.004;2023-01-30T12:17:34;97354.82;;;1.98;69.31
56568;BME280;42456;49.956;20.004;2023-01-30T12:20:16;97353.67;;;1.92;69.49
56568;BME280;42456;49.956;20.004;2023-01-30T12:25:37;97352.20;;;1.80;70.07
56568;BME280;42456;49.956;20.004;2023-01-30T12:33:47;97344.39;;;1.84;70.72
56568;BME280;42456;49.956;20.004;2023-01-30T12:39:07;97333.02;;;1.86;70.74
56568;BME280;42456;49.956;20.004;2023-01-30T12:44:53;97332.48;;;1.75;70.95
56568;BME280;42456;49.956;20.004;2023-01-30T12:47:40;97332.17;;;1.69;72.06
56568;BME280;42456;49.956;20.004;2023-01-30T12:50:32;97329.27;;;1.63;72.03
56568;BME280;42456;49.956;20.004;2023-01-30T12:58:26;97316.13;;;1.49;72.13
56568;BME280;42456;49.956;20.004;2023-01-30T13:06:56;97316.67;;;1.50;72.97
56568;BME280;42456;49.956;20.004;2023-01-30T13:10:41;97316.17;;;1.55;72.36
56568;BME280;42456;49.956;20.004;2023-01-30T13:15:36;97312.52;;;1.63;72.57
56568;BME280;42456;49.956;20.004;2023-01-30T13:18:12;97309.59;;;1.67;72.48
56568;BME280;42456;49.956;20.004;2023-01-30T13:26:11;97301.61;;;1.70;72.67
56568;BME280;42456;49.956;20.004;2023-01-30T13:28:51;97301.13;;;1.71;72.79
56568;BME280;42456;49.956;20.004;2023-01-30T13:31:21;97296.80;;;1.72;72.79
56568;BME280;42456;49.956;20.004;2023-01-30T13:34:05;97295.75;;;1.72;72.73
56568;BME280;42456;49.956;20.004;2023-01-30T13:39:12;97294.66;;;1.63;73.37
56568;BME280;42456;49.956;20.004;2023-01-30T13:41:45;97287.48;;;1.59;73.59
56568;BME280;42456;49.956;20.004;2023-01-30T13:44:29;97288.34;;;1.55;73.32
56568;BME280;42456;49.956;20.004;2023-01-30T13:47:16;97293.06;;;1.53;73.81
56568;BME280;42456;49.956;20.004;2023-01-30T13:54:51;97284.00;;;1.44;74.23
56568;BME280;42456;49.956;20.004;2023-01-30T13:57:26;97286.80;;;1.42;73.93
56568;BME280;42456;49.956;20.004;2023-01-30T14:00:21;97279.11;;;1.42;74.33
56568;BME280;42456;49.956;20.004;2023-01-30T14:03:15;97280.98;;;1.41;73.99
56568;BME280;42456;49.956;20.004;2023-01-30T14:08:24;97291.66;;;1.44;73.86
56568;BME280;42456;49.956;20.004;2023-01-30T14:10:53;97293.54;;;1.47;73.76
56568;BME280;42456;49.956;20.004;2023-01-30T14:13:23;97294.92;;;1.49;73.73
56568;BME280;42456;49.956;20.004;2023-01-30T14:15:59;97293.96;;;1.50;73.95
56568;BME280;42456;49.956;20.004;2023-01-30T14:18:35;97291.00;;;1.52;74.38
56568;BME280;42456;49.956;20.004;2023-01-30T14:21:19;97285.08;;;1.55;74.92
56568;BME280;42456;49.956;20.004;2023-01-30T14:23:59;97289.88;;;1.56;74.29
56568;BME280;42456;49.956;20.004;2023-01-30T14:26:58;97292.35;;;1.54;74.67
56568;BME280;42456;49.956;20.004;2023-01-30T14:34:41;97287.59;;;1.39;74.27
56568;BME280;42456;49.956;20.004;2023-01-30T14:45:57;97284.67;;;1.24;74.81
56568;BME280;42456;49.956;20.004;2023-01-30T15:07:16;97294.33;;;1.36;74.39
56568;BME280;42456;49.956;20.004;2023-01-30T15:09:56;97292.98;;;1.37;74.62
56568;BME280;42456;49.956;20.004;2023-01-30T15:29:08;97295.09;;;1.21;74.91
56568;BME280;42456;49.956;20.004;2023-01-30T15:31:56;97295.71;;;1.18;74.92
56568;BME280;42456;49.956;20.004;2023-01-30T15:34:29;97303.85;;;1.16;74.44
56568;BME280;42456;49.956;20.004;2023-01-30T15:36:57;97303.94;;;1.14;74.70
56568;BME280;42456;49.956;20.004;2023-01-30T15:39:26;97307.48;;;1.14;74.78
56568;BME280;42456;49.956;20.004;2023-01-30T15:42:00;97313.80;;;1.16;74.57
56568;BME280;42456;49.956;20.004;2023-01-30T15:50:00;97320.46;;;1.23;75.05
56568;BME280;42456;49.956;20.004;2023-01-30T15:52:43;97323.20;;;1.24;74.53
56568;BME280;42456;49.956;20.004;2023-01-30T15:55:20;97325.92;;;1.25;75.14
56568;BME280;42456;49.956;20.004;2023-01-30T15:57:52;97324.75;;;1.26;75.35
56568;BME280;42456;49.956;20.004;2023-01-30T16:00:30;97324.49;;;1.25;75.29
56568;BME280;42456;49.956;20.004;2023-01-30T16:03:00;97331.18;;;1.25;75.30